sensor_id;sensor_type;location;lat;lon;timestamp;temperature;humidity
62573;DHT22;48626;51.678;5.806;2022-07-10T00:02:15;16.70;68.40
62573;DHT22;48626;51.678;5.806;2022-07-10T00:04:40;16.70;68.60
62573;DHT22;48626;51.678;5.806;2022-07-10T00:07:06;16.70;68.70
62573;DHT22;48626;51.678;5.806;2022-07-10T00:09:32;16.70;68.40
62573;DHT22;48626;51.678;5.806;2022-07-10T00:11:57;16.70;68.50
62573;DHT22;48626;51.678;5.806;2022-07-10T00:14:23;16.70;68.70
62573;DHT22;48626;51.678;5.806;2022-07-10T00:16:49;16.70;68.90
62573;DHT22;48626;51.678;5.806;2022-07-10T00:19:15;16.60;68.80
62573;DHT22;48626;51.678;5.806;2022-07-10T00:21:40;16.70;68.90
62573;DHT22;48626;51.678;5.806;2022-07-10T00:24:06;16.70;69.20
62573;DHT22;48626;51.678;5.806;2022-07-10T00:26:32;16.70;69.00
62573;DHT22;48626;51.678;5.806;2022-07-10T00:28:58;16.70;69.20
62573;DHT22;48626;51.678;5.806;2022-07-10T00:31:23;16.70;69.30
62573;DHT22;48626;51.678;5.806;2022-07-10T00:33:49;16.70;69.00
62573;DHT22;48626;51.678;5.806;2022-07-10T00:36:16;16.70;69.00
62573;DHT22;48626;51.678;5.806;2022-07-10T00:38:42;16.70;69.40
62573;DHT22;48626;51.678;5.806;2022-07-10T00:41:07;16.70;69.60
62573;DHT22;48626;51.678;5.806;2022-07-10T00:44:11;16.70;69.60
62573;DHT22;48626;51.678;5.806;2022-07-10T00:46:37;16.70;69.90
62573;DHT22;48626;51.678;5.806;2022-07-10T00:49:03;16.70;70.00
62573;DHT22;48626;51.678;5.806;2022-07-10T00:51:29;16.70;70.00
62573;DHT22;48626;51.678;5.806;2022-07-10T00:53:56;16.70;70.10
62573;DHT22;48626;51.678;5.806;2022-07-10T00:56:26;16.60;70.40
62573;DHT22;48626;51.678;5.806;2022-07-10T00:58:52;16.50;70.40
62573;DHT22;48626;51.678;5.806;2022-07-10T01:01:19;16.50;70.50
62573;DHT22;48626;51.678;5.806;2022-07-10T01:03:46;16.40;70.50
62573;DHT22;48626;51.678;5.806;2022-07-10T01:06:13;16.30;70.60
62573;DHT22;48626;51.678;5.806;2022-07-10T01:08:39;16.20;70.80
62573;DHT22;48626;51.678;5.806;2022-07-10T01:11:05;16.10;71.00
62573;DHT22;48626;51.678;5.806;2022-07-10T01:13:30;16.00;71.50
62573;DHT22;48626;51.678;5.806;2022-07-10T01:15:57;15.90;71.80
62573;DHT22;48626;51.678;5.806;2022-07-10T01:18:26;15.80;71.90
62573;DHT22;48626;51.678;5.806;2022-07-10T01:20:53;15.70;72.60
62573;DHT22;48626;51.678;5.806;2022-07-10T01:23:19;15.60;72.50
62573;DHT22;48626;51.678;5.806;2022-07-10T01:25:45;15.60;72.70
62573;DHT22;48626;51.678;5.806;2022-07-10T01:28:11;15.50;72.90
62573;DHT22;48626;51.678;5.806;2022-07-10T01:30:36;15.50;73.10
62573;DHT22;48626;51.678;5.806;2022-07-10T01:33:02;15.50;73.30
62573;DHT22;48626;51.678;5.806;2022-07-10T01:35:28;15.40;73.50
62573;DHT22;48626;51.678;5.806;2022-07-10T01:37:53;15.40;73.50
62573;DHT22;48626;51.678;5.806;2022-07-10T01:40:19;15.40;73.70
62573;DHT22;48626;51.678;5.806;2022-07-10T01:42:45;15.40;73.80
62573;DHT22;48626;51.678;5.806;2022-07-10T01:45:11;15.50;73.80
62573;DHT22;48626;51.678;5.806;2022-07-10T01:47:37;15.50;73.70
62573;DHT22;48626;51.678;5.806;2022-07-10T01:50:04;15.60;73.70
62573;DHT22;48626;51.678;5.806;2022-07-10T01:52:30;15.70;73.80
62573;DHT22;48626;51.678;5.806;2022-07-10T01:54:55;15.70;73.80
62573;DHT22;48626;51.678;5.806;2022-07-10T01:57:21;15.80;73.40
62573;DHT22;48626;51.678;5.806;2022-07-10T01:59:47;15.80;73.50
62573;DHT22;48626;51.678;5.806;2022-07-10T02:02:13;15.90;74.40
62573;DHT22;48626;51.678;5.806;2022-07-10T02:04:38;15.90;73.20
62573;DHT22;48626;51.678;5.806;2022-07-10T02:07:11;15.90;73.30
62573;DHT22;48626;51.678;5.806;2022-07-10T02:09:37;16.00;73.20
62573;DHT22;48626;51.678;5.806;2022-07-10T02:12:05;16.00;73.30
62573;DHT22;48626;51.678;5.806;2022-07-10T02:14:31;16.00;73.40
62573;DHT22;48626;51.678;5.806;2022-07-10T02:16:57;16.00;73.40
62573;DHT22;48626;51.678;5.806;2022-07-10T02:19:23;16.00;72.80
62573;DHT22;48626;51.678;5.806;2022-07-10T02:21:48;16.00;72.90
62573;DHT22;48626;51.678;5.806;2022-07-10T02:24:14;16.00;73.00
62573;DHT22;48626;51.678;5.806;2022-07-10T02:26:40;16.00;72.90
62573;DHT22;48626;51.678;5.806;2022-07-10T02:29:06;16.00;72.90
62573;DHT22;48626;51.678;5.806;2022-07-10T02:31:31;16.00;72.80
62573;DHT22;48626;51.678;5.806;2022-07-10T02:34:00;15.90;72.90
62573;DHT22;48626;51.678;5.806;2022-07-10T02:36:26;15.90;73.00
62573;DHT22;48626;51.678;5.806;2022-07-10T02:38:51;15.80;72.90
62573;DHT22;48626;51.678;5.806;2022-07-10T02:41:17;15.80;73.00
62573;DHT22;48626;51.678;5.806;2022-07-10T02:43:43;15.70;73.20
62573;DHT22;48626;51.678;5.806;2022-07-10T02:46:08;15.60;73.60
62573;DHT22;48626;51.678;5.806;2022-07-10T02:48:34;15.70;73.90
62573;DHT22;48626;51.678;5.806;2022-07-10T02:51:00;15.70;74.00
62573;DHT22;48626;51.678;5.806;2022-07-10T02:53:25;15.70;74.10
62573;DHT22;48626;51.678;5.806;2022-07-10T02:55:51;15.70;74.00
62573;DHT22;48626;51.678;5.806;2022-07-10T02:58:17;15.70;74.20
62573;DHT22;48626;51.678;5.806;2022-07-10T03:00:43;15.70;74.40
62573;DHT22;48626;51.678;5.806;2022-07-10T03:03:09;15.70;74.60
62573;DHT22;48626;51.678;5.806;2022-07-10T03:05:34;15.70;74.90
62573;DHT22;48626;51.678;5.806;2022-07-10T03:08:00;15.70;74.90
62573;DHT22;48626;51.678;5.806;2022-07-10T03:10:26;15.70;74.80
62573;DHT22;48626;51.678;5.806;2022-07-10T03:12:51;15.70;74.70
62573;DHT22;48626;51.678;5.806;2022-07-10T03:15:17;15.70;74.80
62573;DHT22;48626;51.678;5.806;2022-07-10T03:17:43;15.70;74.80
62573;DHT22;48626;51.678;5.806;2022-07-10T03:20:09;15.70;74.90
62573;DHT22;48626;51.678;5.806;2022-07-10T03:22:35;15.70;75.10
62573;DHT22;48626;51.678;5.806;2022-07-10T03:25:01;15.60;75.10
62573;DHT22;48626;51.678;5.806;2022-07-10T03:27:26;15.50;75.30
62573;DHT22;48626;51.678;5.806;2022-07-10T03:29:52;15.50;75.60
62573;DHT22;48626;51.678;5.806;2022-07-10T03:32:18;15.50;75.80
62573;DHT22;48626;51.678;5.806;2022-07-10T03:34:43;15.60;76.00
62573;DHT22;48626;51.678;5.806;2022-07-10T03:37:09;15.60;75.70
62573;DHT22;48626;51.678;5.806;2022-07-10T03:39:34;15.60;75.90
62573;DHT22;48626;51.678;5.806;2022-07-10T03:42:00;15.60;76.00
62573;DHT22;48626;51.678;5.806;2022-07-10T03:44:26;15.70;76.10
62573;DHT22;48626;51.678;5.806;2022-07-10T03:46:52;15.70;75.80
62573;DHT22;48626;51.678;5.806;2022-07-10T03:49:17;15.70;76.00
62573;DHT22;48626;51.678;5.806;2022-07-10T03:51:43;15.70;75.70
62573;DHT22;48626;51.678;5.806;2022-07-10T03:54:09;15.70;75.90
62573;DHT22;48626;51.678;5.806;2022-07-10T03:56:34;15.70;76.00
62573;DHT22;48626;51.678;5.806;2022-07-10T03:59:18;15.70;75.80
62573;DHT22;48626;51.678;5.806;2022-07-10T04:01:44;15.70;75.70
62573;DHT22;48626;51.678;5.806;2022-07-10T04:04:10;15.70;76.20
62573;DHT22;48626;51.678;5.806;2022-07-10T04:06:35;15.70;76.10
62573;DHT22;48626;51.678;5.806;2022-07-10T04:09:04;15.70;76.00
62573;DHT22;48626;51.678;5.806;2022-07-10T04:11:30;15.80;76.00
62573;DHT22;48626;51.678;5.806;2022-07-10T04:13:56;15.80;76.10
62573;DHT22;48626;51.678;5.806;2022-07-10T04:16:21;15.80;76.10
62573;DHT22;48626;51.678;5.806;2022-07-10T04:18:48;15.80;76.10
62573;DHT22;48626;51.678;5.806;2022-07-10T04:21:14;15.90;76.10
62573;DHT22;48626;51.678;5.806;2022-07-10T04:23:39;15.90;76.20
62573;DHT22;48626;51.678;5.806;2022-07-10T04:26:05;15.90;76.30
62573;DHT22;48626;51.678;5.806;2022-07-10T04:28:31;15.90;76.40
62573;DHT22;48626;51.678;5.806;2022-07-10T04:30:57;15.90;76.40
62573;DHT22;48626;51.678;5.806;2022-07-10T04:33:22;16.00;76.30
62573;DHT22;48626;51.678;5.806;2022-07-10T04:35:48;16.00;76.20
62573;DHT22;48626;51.678;5.806;2022-07-10T04:38:13;16.00;76.50
62573;DHT22;48626;51.678;5.806;2022-07-10T04:40:39;16.00;76.40
62573;DHT22;48626;51.678;5.806;2022-07-10T04:43:05;16.00;76.60
62573;DHT22;48626;51.678;5.806;2022-07-10T04:45:30;16.00;76.50
62573;DHT22;48626;51.678;5.806;2022-07-10T04:47:56;16.00;76.80
62573;DHT22;48626;51.678;5.806;2022-07-10T04:50:21;16.00;76.80
62573;DHT22;48626;51.678;5.806;2022-07-10T04:52:47;16.00;77.00
62573;DHT22;48626;51.678;5.806;2022-07-10T04:55:13;16.10;77.00
62573;DHT22;48626;51.678;5.806;2022-07-10T04:57:38;16.10;76.90
62573;DHT22;48626;51.678;5.806;2022-07-10T05:00:05;16.10;77.00
62573;DHT22;48626;51.678;5.806;2022-07-10T05:02:30;16.20;77.20
62573;DHT22;48626;51.678;5.806;2022-07-10T05:04:56;16.20;77.20
62573;DHT22;48626;51.678;5.806;2022-07-10T05:07:22;16.30;77.50
62573;DHT22;48626;51.678;5.806;2022-07-10T05:09:47;16.30;77.50
62573;DHT22;48626;51.678;5.806;2022-07-10T05:12:13;16.30;77.10
62573;DHT22;48626;51.678;5.806;2022-07-10T05:14:38;16.30;77.00
62573;DHT22;48626;51.678;5.806;2022-07-10T05:17:04;16.40;77.00
62573;DHT22;48626;51.678;5.806;2022-07-10T05:19:30;16.40;77.00
62573;DHT22;48626;51.678;5.806;2022-07-10T05:21:55;16.40;77.20
62573;DHT22;48626;51.678;5.806;2022-07-10T05:24:21;16.40;77.20
62573;DHT22;48626;51.678;5.806;2022-07-10T05:26:46;16.50;77.30
62573;DHT22;48626;51.678;5.806;2022-07-10T05:29:12;16.50;77.40
62573;DHT22;48626;51.678;5.806;2022-07-10T05:31:38;16.60;77.50
62573;DHT22;48626;51.678;5.806;2022-07-10T05:34:03;16.60;77.90
62573;DHT22;48626;51.678;5.806;2022-07-10T05:36:29;16.70;77.40
62573;DHT22;48626;51.678;5.806;2022-07-10T05:38:55;16.70;77.50
62573;DHT22;48626;51.678;5.806;2022-07-10T05:41:20;16.70;77.50
62573;DHT22;48626;51.678;5.806;2022-07-10T05:43:46;16.80;77.50
62573;DHT22;48626;51.678;5.806;2022-07-10T05:46:11;16.90;77.40
62573;DHT22;48626;51.678;5.806;2022-07-10T05:48:37;16.90;77.20
62573;DHT22;48626;51.678;5.806;2022-07-10T05:51:04;16.90;77.10
62573;DHT22;48626;51.678;5.806;2022-07-10T05:53:29;16.90;76.90
62573;DHT22;48626;51.678;5.806;2022-07-10T05:55:59;17.00;76.60
62573;DHT22;48626;51.678;5.806;2022-07-10T05:58:25;17.10;76.60
62573;DHT22;48626;51.678;5.806;2022-07-10T06:00:51;17.10;76.00
62573;DHT22;48626;51.678;5.806;2022-07-10T06:03:17;17.20;76.00
62573;DHT22;48626;51.678;5.806;2022-07-10T06:05:43;17.20;76.10
62573;DHT22;48626;51.678;5.806;2022-07-10T06:08:10;17.30;76.40
62573;DHT22;48626;51.678;5.806;2022-07-10T06:10:36;17.40;76.20
62573;DHT22;48626;51.678;5.806;2022-07-10T06:13:02;17.50;75.80
62573;DHT22;48626;51.678;5.806;2022-07-10T06:15:27;17.50;75.20
62573;DHT22;48626;51.678;5.806;2022-07-10T06:17:56;17.60;75.30
62573;DHT22;48626;51.678;5.806;2022-07-10T06:20:22;17.60;75.40
62573;DHT22;48626;51.678;5.806;2022-07-10T06:22:48;17.70;75.10
62573;DHT22;48626;51.678;5.806;2022-07-10T06:25:13;17.70;73.30
62573;DHT22;48626;51.678;5.806;2022-07-10T06:27:39;17.70;73.90
62573;DHT22;48626;51.678;5.806;2022-07-10T06:30:05;17.70;72.70
62573;DHT22;48626;51.678;5.806;2022-07-10T06:32:31;17.70;72.80
62573;DHT22;48626;51.678;5.806;2022-07-10T06:34:56;17.70;72.80
62573;DHT22;48626;51.678;5.806;2022-07-10T06:37:22;17.70;72.70
62573;DHT22;48626;51.678;5.806;2022-07-10T06:39:48;17.70;72.80
62573;DHT22;48626;51.678;5.806;2022-07-10T06:42:14;17.70;72.80
62573;DHT22;48626;51.678;5.806;2022-07-10T06:44:43;17.80;72.70
62573;DHT22;48626;51.678;5.806;2022-07-10T06:47:10;17.90;73.00
62573;DHT22;48626;51.678;5.806;2022-07-10T06:49:56;17.90;72.10
62573;DHT22;48626;51.678;5.806;2022-07-10T06:52:22;17.90;72.00
62573;DHT22;48626;51.678;5.806;2022-07-10T06:54:48;17.80;72.00
62573;DHT22;48626;51.678;5.806;2022-07-10T06:57:14;17.80;72.30
62573;DHT22;48626;51.678;5.806;2022-07-10T06:59:39;17.80;72.40
62573;DHT22;48626;51.678;5.806;2022-07-10T07:02:05;17.80;72.70
62573;DHT22;48626;51.678;5.806;2022-07-10T07:04:31;17.80;72.50
62573;DHT22;48626;51.678;5.806;2022-07-10T07:06:56;17.90;72.90
62573;DHT22;48626;51.678;5.806;2022-07-10T07:09:22;17.80;72.20
62573;DHT22;48626;51.678;5.806;2022-07-10T07:11:48;17.80;72.50
62573;DHT22;48626;51.678;5.806;2022-07-10T07:14:14;17.80;72.60
62573;DHT22;48626;51.678;5.806;2022-07-10T07:16:39;17.90;72.70
62573;DHT22;48626;51.678;5.806;2022-07-10T07:19:10;17.90;72.50
62573;DHT22;48626;51.678;5.806;2022-07-10T07:21:37;17.90;72.40
62573;DHT22;48626;51.678;5.806;2022-07-10T07:24:21;17.90;72.30
62573;DHT22;48626;51.678;5.806;2022-07-10T07:26:47;17.90;72.60
62573;DHT22;48626;51.678;5.806;2022-07-10T07:29:17;18.00;72.80
62573;DHT22;48626;51.678;5.806;2022-07-10T07:31:43;18.00;72.90
62573;DHT22;48626;51.678;5.806;2022-07-10T07:34:09;18.10;72.80
62573;DHT22;48626;51.678;5.806;2022-07-10T07:36:34;18.10;72.90
62573;DHT22;48626;51.678;5.806;2022-07-10T07:39:00;18.10;72.30
62573;DHT22;48626;51.678;5.806;2022-07-10T07:41:26;18.10;72.40
62573;DHT22;48626;51.678;5.806;2022-07-10T07:43:51;18.10;72.40
62573;DHT22;48626;51.678;5.806;2022-07-10T07:46:18;18.00;72.60
62573;DHT22;48626;51.678;5.806;2022-07-10T07:48:45;18.00;73.20
62573;DHT22;48626;51.678;5.806;2022-07-10T07:51:11;18.10;73.30
62573;DHT22;48626;51.678;5.806;2022-07-10T07:53:37;18.10;72.40
62573;DHT22;48626;51.678;5.806;2022-07-10T07:56:03;18.00;72.90
62573;DHT22;48626;51.678;5.806;2022-07-10T07:58:28;18.10;72.80
62573;DHT22;48626;51.678;5.806;2022-07-10T08:00:54;18.10;72.70
62573;DHT22;48626;51.678;5.806;2022-07-10T08:03:22;18.20;72.60
62573;DHT22;48626;51.678;5.806;2022-07-10T08:05:47;18.20;72.50
62573;DHT22;48626;51.678;5.806;2022-07-10T08:08:14;18.20;71.70
62573;DHT22;48626;51.678;5.806;2022-07-10T08:10:39;18.30;72.00
62573;DHT22;48626;51.678;5.806;2022-07-10T08:13:05;18.30;72.30
62573;DHT22;48626;51.678;5.806;2022-07-10T08:15:30;18.30;72.10
62573;DHT22;48626;51.678;5.806;2022-07-10T08:17:57;18.30;71.80
62573;DHT22;48626;51.678;5.806;2022-07-10T08:20:24;18.30;72.00
62573;DHT22;48626;51.678;5.806;2022-07-10T08:22:51;18.30;72.20
62573;DHT22;48626;51.678;5.806;2022-07-10T08:25:18;18.30;71.90
62573;DHT22;48626;51.678;5.806;2022-07-10T08:27:44;18.30;72.00
62573;DHT22;48626;51.678;5.806;2022-07-10T08:30:11;18.30;72.30
62573;DHT22;48626;51.678;5.806;2022-07-10T08:32:38;18.30;72.40
62573;DHT22;48626;51.678;5.806;2022-07-10T08:35:04;18.30;72.80
62573;DHT22;48626;51.678;5.806;2022-07-10T08:37:37;18.40;73.20
62573;DHT22;48626;51.678;5.806;2022-07-10T08:40:03;18.50;72.50
62573;DHT22;48626;51.678;5.806;2022-07-10T08:42:32;18.60;72.80
62573;DHT22;48626;51.678;5.806;2022-07-10T08:44:58;18.80;72.50
62573;DHT22;48626;51.678;5.806;2022-07-10T08:47:23;18.90;72.00
62573;DHT22;48626;51.678;5.806;2022-07-10T08:49:51;18.90;71.20
62573;DHT22;48626;51.678;5.806;2022-07-10T08:52:33;18.90;71.10
62573;DHT22;48626;51.678;5.806;2022-07-10T08:55:04;18.90;71.30
62573;DHT22;48626;51.678;5.806;2022-07-10T08:57:30;18.90;71.70
62573;DHT22;48626;51.678;5.806;2022-07-10T08:59:57;18.90;71.80
62573;DHT22;48626;51.678;5.806;2022-07-10T09:02:23;18.90;71.20
62573;DHT22;48626;51.678;5.806;2022-07-10T09:04:48;18.90;71.30
62573;DHT22;48626;51.678;5.806;2022-07-10T09:07:14;19.00;71.00
62573;DHT22;48626;51.678;5.806;2022-07-10T09:09:54;19.10;70.90
62573;DHT22;48626;51.678;5.806;2022-07-10T09:12:22;19.40;70.10
62573;DHT22;48626;51.678;5.806;2022-07-10T09:14:48;19.60;70.40
62573;DHT22;48626;51.678;5.806;2022-07-10T09:17:14;19.90;69.70
62573;DHT22;48626;51.678;5.806;2022-07-10T09:19:40;20.30;69.60
62573;DHT22;48626;51.678;5.806;2022-07-10T09:22:08;20.60;68.50
62573;DHT22;48626;51.678;5.806;2022-07-10T09:24:40;20.70;67.50
62573;DHT22;48626;51.678;5.806;2022-07-10T09:27:07;20.80;66.20
62573;DHT22;48626;51.678;5.806;2022-07-10T09:29:45;20.80;65.90
62573;DHT22;48626;51.678;5.806;2022-07-10T09:32:12;20.90;65.00
62573;DHT22;48626;51.678;5.806;2022-07-10T09:34:38;20.90;64.70
62573;DHT22;48626;51.678;5.806;2022-07-10T09:37:26;20.80;64.90
62573;DHT22;48626;51.678;5.806;2022-07-10T09:40:00;20.80;65.30
62573;DHT22;48626;51.678;5.806;2022-07-10T09:42:40;21.10;65.20
62573;DHT22;48626;51.678;5.806;2022-07-10T09:47:59;21.70;65.00
62573;DHT22;48626;51.678;5.806;2022-07-10T09:50:36;21.90;62.50
62573;DHT22;48626;51.678;5.806;2022-07-10T09:53:08;21.80;63.20
62573;DHT22;48626;51.678;5.806;2022-07-10T09:55:36;21.80;62.80
62573;DHT22;48626;51.678;5.806;2022-07-10T09:58:07;21.60;61.70
62573;DHT22;48626;51.678;5.806;2022-07-10T10:00:40;21.60;62.00
62573;DHT22;48626;51.678;5.806;2022-07-10T10:03:08;21.70;62.50
62573;DHT22;48626;51.678;5.806;2022-07-10T10:05:45;22.00;62.00
62573;DHT22;48626;51.678;5.806;2022-07-10T10:08:21;22.20;61.00
62573;DHT22;48626;51.678;5.806;2022-07-10T10:10:50;22.30;61.60
62573;DHT22;48626;51.678;5.806;2022-07-10T10:13:20;22.30;60.30
62573;DHT22;48626;51.678;5.806;2022-07-10T10:15:48;22.30;60.60
62573;DHT22;48626;51.678;5.806;2022-07-10T10:18:19;22.20;61.30
62573;DHT22;48626;51.678;5.806;2022-07-10T10:20:46;22.20;61.00
62573;DHT22;48626;51.678;5.806;2022-07-10T10:23:17;22.20;61.70
62573;DHT22;48626;51.678;5.806;2022-07-10T10:25:46;22.30;62.20
62573;DHT22;48626;51.678;5.806;2022-07-10T10:28:13;22.40;59.80
62573;DHT22;48626;51.678;5.806;2022-07-10T10:30:43;22.60;59.10
62573;DHT22;48626;51.678;5.806;2022-07-10T10:36:04;23.10;58.70
62573;DHT22;48626;51.678;5.806;2022-07-10T10:41:37;23.40;58.80
62573;DHT22;48626;51.678;5.806;2022-07-10T10:46:33;23.40;56.50
62573;DHT22;48626;51.678;5.806;2022-07-10T10:49:06;23.10;55.60
62573;DHT22;48626;51.678;5.806;2022-07-10T10:52:01;22.90;56.30
62573;DHT22;48626;51.678;5.806;2022-07-10T10:57:21;23.70;56.80
62573;DHT22;48626;51.678;5.806;2022-07-10T10:59:51;24.00;56.10
62573;DHT22;48626;51.678;5.806;2022-07-10T11:04:46;24.60;53.20
62573;DHT22;48626;51.678;5.806;2022-07-10T11:07:11;24.80;53.90
62573;DHT22;48626;51.678;5.806;2022-07-10T11:09:37;24.70;54.80
62573;DHT22;48626;51.678;5.806;2022-07-10T11:12:10;24.40;52.30
62573;DHT22;48626;51.678;5.806;2022-07-10T11:14:39;24.20;53.40
62573;DHT22;48626;51.678;5.806;2022-07-10T11:17:06;24.10;55.00
62573;DHT22;48626;51.678;5.806;2022-07-10T11:19:34;24.20;53.80
62573;DHT22;48626;51.678;5.806;2022-07-10T11:27:58;24.00;53.80
62573;DHT22;48626;51.678;5.806;2022-07-10T11:30:46;24.20;55.30
62573;DHT22;48626;51.678;5.806;2022-07-10T11:33:11;24.30;54.80
62573;DHT22;48626;51.678;5.806;2022-07-10T11:35:40;24.50;52.80
62573;DHT22;48626;51.678;5.806;2022-07-10T11:38:06;24.50;52.70
62573;DHT22;48626;51.678;5.806;2022-07-10T11:40:36;24.40;53.60
62573;DHT22;48626;51.678;5.806;2022-07-10T11:43:02;24.50;54.80
62573;DHT22;48626;51.678;5.806;2022-07-10T11:45:32;24.90;55.30
62573;DHT22;48626;51.678;5.806;2022-07-10T11:47:59;25.00;51.60
62573;DHT22;48626;51.678;5.806;2022-07-10T11:50:26;25.00;52.20
62573;DHT22;48626;51.678;5.806;2022-07-10T11:52:52;25.00;52.40
62573;DHT22;48626;51.678;5.806;2022-07-10T11:55:22;24.90;52.30
62573;DHT22;48626;51.678;5.806;2022-07-10T11:57:48;24.70;52.80
62573;DHT22;48626;51.678;5.806;2022-07-10T12:00:25;24.50;54.30
62573;DHT22;48626;51.678;5.806;2022-07-10T12:02:53;24.40;54.30
62573;DHT22;48626;51.678;5.806;2022-07-10T12:05:35;24.10;52.60
62573;DHT22;48626;51.678;5.806;2022-07-10T12:08:02;23.70;51.80
62573;DHT22;48626;51.678;5.806;2022-07-10T12:10:28;23.50;54.10
62573;DHT22;48626;51.678;5.806;2022-07-10T12:13:09;23.30;54.30
62573;DHT22;48626;51.678;5.806;2022-07-10T12:15:44;23.20;54.20
62573;DHT22;48626;51.678;5.806;2022-07-10T12:18:18;23.10;56.30
62573;DHT22;48626;51.678;5.806;2022-07-10T12:20:45;23.00;55.70
62573;DHT22;48626;51.678;5.806;2022-07-10T12:23:17;22.90;55.70
62573;DHT22;48626;51.678;5.806;2022-07-10T12:25:46;22.90;56.00
62573;DHT22;48626;51.678;5.806;2022-07-10T12:28:13;23.20;56.40
62573;DHT22;48626;51.678;5.806;2022-07-10T12:30:40;23.30;56.30
62573;DHT22;48626;51.678;5.806;2022-07-10T12:33:26;23.20;57.30
62573;DHT22;48626;51.678;5.806;2022-07-10T12:38:29;23.20;56.30
62573;DHT22;48626;51.678;5.806;2022-07-10T12:41:08;23.10;56.30
62573;DHT22;48626;51.678;5.806;2022-07-10T12:43:35;22.90;56.40
62573;DHT22;48626;51.678;5.806;2022-07-10T12:49:00;23.00;57.30
62573;DHT22;48626;51.678;5.806;2022-07-10T12:51:28;23.20;57.20
62573;DHT22;48626;51.678;5.806;2022-07-10T12:53:54;23.60;56.70
62573;DHT22;48626;51.678;5.806;2022-07-10T12:59:00;24.80;54.40
62573;DHT22;48626;51.678;5.806;2022-07-10T13:01:28;24.70;52.70
62573;DHT22;48626;51.678;5.806;2022-07-10T13:03:59;24.40;53.00
62573;DHT22;48626;51.678;5.806;2022-07-10T13:06:26;24.20;53.60
62573;DHT22;48626;51.678;5.806;2022-07-10T13:08:52;24.10;55.40
62573;DHT22;48626;51.678;5.806;2022-07-10T13:11:18;23.80;53.70
62573;DHT22;48626;51.678;5.806;2022-07-10T13:13:44;23.80;54.30
62573;DHT22;48626;51.678;5.806;2022-07-10T13:16:09;23.90;55.60
62573;DHT22;48626;51.678;5.806;2022-07-10T13:18:35;23.90;52.80
62573;DHT22;48626;51.678;5.806;2022-07-10T13:21:01;23.80;54.30
62573;DHT22;48626;51.678;5.806;2022-07-10T13:23:28;24.00;54.80
62573;DHT22;48626;51.678;5.806;2022-07-10T13:25:57;24.10;55.00
62573;DHT22;48626;51.678;5.806;2022-07-10T13:28:28;24.50;53.00
62573;DHT22;48626;51.678;5.806;2022-07-10T13:30:54;24.70;53.90
62573;DHT22;48626;51.678;5.806;2022-07-10T13:33:20;25.10;52.00
62573;DHT22;48626;51.678;5.806;2022-07-10T13:35:46;25.50;52.40
62573;DHT22;48626;51.678;5.806;2022-07-10T13:38:11;25.90;50.50
62573;DHT22;48626;51.678;5.806;2022-07-10T13:40:37;26.20;51.50
62573;DHT22;48626;51.678;5.806;2022-07-10T13:43:04;26.50;47.80
62573;DHT22;48626;51.678;5.806;2022-07-10T13:45:33;26.20;47.20
62573;DHT22;48626;51.678;5.806;2022-07-10T13:48:05;26.10;48.60
62573;DHT22;48626;51.678;5.806;2022-07-10T13:50:31;26.10;49.20
62573;DHT22;48626;51.678;5.806;2022-07-10T13:52:58;26.00;49.50
62573;DHT22;48626;51.678;5.806;2022-07-10T13:55:24;25.90;50.10
62573;DHT22;48626;51.678;5.806;2022-07-10T13:57:49;26.10;49.50
62573;DHT22;48626;51.678;5.806;2022-07-10T14:00:15;26.10;46.80
62573;DHT22;48626;51.678;5.806;2022-07-10T14:02:41;26.60;49.20
62573;DHT22;48626;51.678;5.806;2022-07-10T14:05:07;26.80;48.40
62573;DHT22;48626;51.678;5.806;2022-07-10T14:07:35;26.60;48.70
62573;DHT22;48626;51.678;5.806;2022-07-10T14:10:01;27.10;48.10
62573;DHT22;48626;51.678;5.806;2022-07-10T14:12:26;27.80;45.20
62573;DHT22;48626;51.678;5.806;2022-07-10T14:14:52;27.60;44.60
62573;DHT22;48626;51.678;5.806;2022-07-10T14:17:18;26.90;43.70
62573;DHT22;48626;51.678;5.806;2022-07-10T14:19:43;26.50;45.90
62573;DHT22;48626;51.678;5.806;2022-07-10T14:22:09;26.40;47.60
62573;DHT22;48626;51.678;5.806;2022-07-10T14:24:36;26.10;46.90
62573;DHT22;48626;51.678;5.806;2022-07-10T14:27:02;26.10;47.70
62573;DHT22;48626;51.678;5.806;2022-07-10T14:29:28;26.20;48.20
62573;DHT22;48626;51.678;5.806;2022-07-10T14:31:54;26.10;46.80
62573;DHT22;48626;51.678;5.806;2022-07-10T14:34:20;25.90;47.60
62573;DHT22;48626;51.678;5.806;2022-07-10T14:36:45;26.20;47.00
62573;DHT22;48626;51.678;5.806;2022-07-10T14:39:11;26.20;47.60
62573;DHT22;48626;51.678;5.806;2022-07-10T14:41:38;26.20;47.60
62573;DHT22;48626;51.678;5.806;2022-07-10T14:44:04;25.90;45.40
62573;DHT22;48626;51.678;5.806;2022-07-10T14:46:30;25.70;46.70
62573;DHT22;48626;51.678;5.806;2022-07-10T14:48:56;25.80;46.50
62573;DHT22;48626;51.678;5.806;2022-07-10T14:51:21;25.80;47.10
62573;DHT22;48626;51.678;5.806;2022-07-10T14:53:47;25.60;46.80
62573;DHT22;48626;51.678;5.806;2022-07-10T14:56:13;25.90;46.60
62573;DHT22;48626;51.678;5.806;2022-07-10T14:58:42;26.00;46.10
62573;DHT22;48626;51.678;5.806;2022-07-10T15:01:07;26.00;46.90
62573;DHT22;48626;51.678;5.806;2022-07-10T15:03:33;26.10;46.80
62573;DHT22;48626;51.678;5.806;2022-07-10T15:05:58;26.10;46.10
62573;DHT22;48626;51.678;5.806;2022-07-10T15:08:24;26.00;46.70
62573;DHT22;48626;51.678;5.806;2022-07-10T15:10:50;26.30;46.80
62573;DHT22;48626;51.678;5.806;2022-07-10T15:13:16;26.70;45.80
62573;DHT22;48626;51.678;5.806;2022-07-10T15:15:41;26.60;44.60
62573;DHT22;48626;51.678;5.806;2022-07-10T15:18:07;26.40;45.00
62573;DHT22;48626;51.678;5.806;2022-07-10T15:20:34;26.10;45.10
62573;DHT22;48626;51.678;5.806;2022-07-10T15:23:00;26.10;46.20
62573;DHT22;48626;51.678;5.806;2022-07-10T15:25:25;26.20;43.60
62573;DHT22;48626;51.678;5.806;2022-07-10T15:27:52;26.40;44.50
62573;DHT22;48626;51.678;5.806;2022-07-10T15:30:18;26.30;45.10
62573;DHT22;48626;51.678;5.806;2022-07-10T15:32:44;26.20;45.80
62573;DHT22;48626;51.678;5.806;2022-07-10T15:35:11;25.90;44.20
62573;DHT22;48626;51.678;5.806;2022-07-10T15:37:37;25.80;45.40
62573;DHT22;48626;51.678;5.806;2022-07-10T15:40:04;25.70;45.70
62573;DHT22;48626;51.678;5.806;2022-07-10T15:42:30;25.70;46.80
62573;DHT22;48626;51.678;5.806;2022-07-10T15:44:56;26.00;46.20
62573;DHT22;48626;51.678;5.806;2022-07-10T15:47:21;26.10;46.40
62573;DHT22;48626;51.678;5.806;2022-07-10T15:49:47;26.30;46.50
62573;DHT22;48626;51.678;5.806;2022-07-10T15:52:13;26.60;44.60
62573;DHT22;48626;51.678;5.806;2022-07-10T15:54:39;26.50;46.20
62573;DHT22;48626;51.678;5.806;2022-07-10T15:57:05;26.30;45.10
62573;DHT22;48626;51.678;5.806;2022-07-10T15:59:30;26.60;46.50
62573;DHT22;48626;51.678;5.806;2022-07-10T16:01:57;26.40;45.30